sensor_id;sensor_type;location;lat;lon;timestamp;pressure;altitude;pressure_sealevel;temperature
66170;BMP280;52971;44.024;20.456;2022-07-01T00:02:00;97850.78;;;23.67
66170;BMP280;52971;44.024;20.456;2022-07-01T00:04:25;97848.06;;;23.70
66170;BMP280;52971;44.024;20.456;2022-07-01T00:06:56;97851.59;;;23.60
66170;BMP280;52971;44.024;20.456;2022-07-01T00:09:22;97850.41;;;23.68
66170;BMP280;52971;44.024;20.456;2022-07-01T00:11:48;97849.63;;;23.68
66170;BMP280;52971;44.024;20.456;2022-07-01T00:14:13;97850.41;;;23.58
66170;BMP280;52971;44.024;20.456;2022-07-01T00:16:39;97848.16;;;23.53
66170;BMP280;52971;44.024;20.456;2022-07-01T00:19:05;97844.31;;;23.50
66170;BMP280;52971;44.024;20.456;2022-07-01T00:21:31;97848.19;;;23.45
66170;BMP280;52971;44.024;20.456;2022-07-01T00:23:57;97851.22;;;23.55
66170;BMP280;52971;44.024;20.456;2022-07-01T00:26:22;97845.00;;;23.58
66170;BMP280;52971;44.024;20.456;2022-07-01T00:28:48;97847.34;;;23.56
66170;BMP280;52971;44.024;20.456;2022-07-01T00:31:13;97848.16;;;23.53
66170;BMP280;52971;44.024;20.456;2022-07-01T00:33:39;97853.59;;;23.49
66170;BMP280;52971;44.024;20.456;2022-07-01T00:36:04;97855.19;;;23.32
66170;BMP280;52971;44.024;20.456;2022-07-01T00:38:30;97854.41;;;23.35
66170;BMP280;52971;44.024;20.456;2022-07-01T00:40:56;97855.16;;;23.39
66170;BMP280;52971;44.024;20.456;2022-07-01T00:43:22;97854.41;;;23.25
66170;BMP280;52971;44.024;20.456;2022-07-01T00:45:51;97850.53;;;23.33
66170;BMP280;52971;44.024;20.456;2022-07-01T00:48:20;97856.72;;;23.33
66170;BMP280;52971;44.024;20.456;2022-07-01T00:50:46;97859.09;;;23.24
66170;BMP280;52971;44.024;20.456;2022-07-01T00:53:13;97860.28;;;23.09
66170;BMP280;52971;44.024;20.456;2022-07-01T00:55:39;97854.50;;;23.03
66170;BMP280;52971;44.024;20.456;2022-07-01T00:58:04;97855.63;;;22.99
66170;BMP280;52971;44.024;20.456;2022-07-01T01:00:30;97856.06;;;23.01
66170;BMP280;52971;44.024;20.456;2022-07-01T01:02:56;97861.84;;;22.92
66170;BMP280;52971;44.024;20.456;2022-07-01T01:05:21;97861.47;;;22.97
66170;BMP280;52971;44.024;20.456;2022-07-01T01:07:50;97860.69;;;23.04
66170;BMP280;52971;44.024;20.456;2022-07-01T01:10:17;97855.66;;;22.95
66170;BMP280;52971;44.024;20.456;2022-07-01T01:12:43;97858.38;;;22.92
66170;BMP280;52971;44.024;20.456;2022-07-01T01:15:09;97859.13;;;22.96
66170;BMP280;52971;44.024;20.456;2022-07-01T01:17:36;97853.78;;;22.85
66170;BMP280;52971;44.024;20.456;2022-07-01T01:20:03;97853.78;;;22.75
66170;BMP280;52971;44.024;20.456;2022-07-01T01:22:28;97858.75;;;22.80
66170;BMP280;52971;44.024;20.456;2022-07-01T01:24:54;97861.50;;;22.73
66170;BMP280;52971;44.024;20.456;2022-07-01T01:27:20;97859.97;;;22.72
66170;BMP280;52971;44.024;20.456;2022-07-01T01:29:45;97855.28;;;22.69
66170;BMP280;52971;44.024;20.456;2022-07-01T01:32:11;97851.44;;;22.77
66170;BMP280;52971;44.024;20.456;2022-07-01T01:34:38;97851.84;;;22.72
66170;BMP280;52971;44.024;20.456;2022-07-01T01:37:05;97853.78;;;22.71
66170;BMP280;52971;44.024;20.456;2022-07-01T01:39:30;97859.97;;;22.68
66170;BMP280;52971;44.024;20.456;2022-07-01T01:41:56;97859.56;;;22.63
66170;BMP280;52971;44.024;20.456;2022-07-01T01:44:21;97856.88;;;22.63
66170;BMP280;52971;44.024;20.456;2022-07-01T01:46:47;97863.81;;;22.64
66170;BMP280;52971;44.024;20.456;2022-07-01T01:49:12;97871.94;;;22.60
66170;BMP280;52971;44.024;20.456;2022-07-01T01:51:38;97869.19;;;22.49
66170;BMP280;52971;44.024;20.456;2022-07-01T01:54:04;97868.84;;;22.47
66170;BMP280;52971;44.024;20.456;2022-07-01T01:56:30;97865.34;;;22.47
66170;BMP280;52971;44.024;20.456;2022-07-01T01:58:56;97870.00;;;22.46
66170;BMP280;52971;44.024;20.456;2022-07-01T02:01:22;97871.53;;;22.40
66170;BMP280;52971;44.024;20.456;2022-07-01T02:03:48;97866.50;;;22.42
66170;BMP280;52971;44.024;20.456;2022-07-01T02:06:16;97867.69;;;22.41
66170;BMP280;52971;44.024;20.456;2022-07-01T02:08:42;97866.50;;;22.35
66170;BMP280;52971;44.024;20.456;2022-07-01T02:11:08;97871.53;;;22.33
66170;BMP280;52971;44.024;20.456;2022-07-01T02:13:34;97870.34;;;22.16
66170;BMP280;52971;44.024;20.456;2022-07-01T02:16:00;97871.88;;;22.10
66170;BMP280;52971;44.024;20.456;2022-07-01T02:18:26;97862.22;;;22.09
66170;BMP280;52971;44.024;20.456;2022-07-01T02:20:51;97867.66;;;22.16
66170;BMP280;52971;44.024;20.456;2022-07-01T02:23:17;97879.91;;;21.93
66170;BMP280;52971;44.024;20.456;2022-07-01T02:25:43;97874.16;;;22.05
66170;BMP280;52971;44.024;20.456;2022-07-01T02:28:09;97869.91;;;22.00
66170;BMP280;52971;44.024;20.456;2022-07-01T02:30:35;97869.91;;;22.00
66170;BMP280;52971;44.024;20.456;2022-07-01T02:33:05;97874.53;;;22.03
66170;BMP280;52971;44.024;20.456;2022-07-01T02:35:32;97866.78;;;21.84
66170;BMP280;52971;44.024;20.456;2022-07-01T02:37:58;97864.06;;;21.77
66170;BMP280;52971;44.024;20.456;2022-07-01T02:40:24;97872.16;;;21.73
66170;BMP280;52971;44.024;20.456;2022-07-01T02:42:49;97872.16;;;21.77
66170;BMP280;52971;44.024;20.456;2022-07-01T02:45:15;97871.00;;;21.74
66170;BMP280;52971;44.024;20.456;2022-07-01T02:47:41;97868.66;;;21.69
66170;BMP280;52971;44.024;20.456;2022-07-01T02:50:09;97863.59;;;21.54
66170;BMP280;52971;44.024;20.456;2022-07-01T02:52:35;97860.13;;;21.53
66170;BMP280;52971;44.024;20.456;2022-07-01T02:55:02;97872.06;;;21.59
66170;BMP280;52971;44.024;20.456;2022-07-01T02:57:28;97870.56;;;21.58
66170;BMP280;52971;44.024;20.456;2022-07-01T02:59:54;97868.63;;;21.62
66170;BMP280;52971;44.024;20.456;2022-07-01T03:02:19;97874.81;;;21.66
66170;BMP280;52971;44.024;20.456;2022-07-01T03:04:49;97879.03;;;21.60
66170;BMP280;52971;44.024;20.456;2022-07-01T03:07:16;97882.91;;;21.66
66170;BMP280;52971;44.024;20.456;2022-07-01T03:09:42;97882.91;;;21.66
66170;BMP280;52971;44.024;20.456;2022-07-01T03:12:12;97887.16;;;21.67
66170;BMP280;52971;44.024;20.456;2022-07-01T03:17:23;97889.06;;;21.63
66170;BMP280;52971;44.024;20.456;2022-07-01T03:19:49;97883.69;;;21.63
66170;BMP280;52971;44.024;20.456;2022-07-01T03:22:14;97885.25;;;21.68
66170;BMP280;52971;44.024;20.456;2022-07-01T03:24:40;97897.91;;;21.57
66170;BMP280;52971;44.024;20.456;2022-07-01T03:27:06;97885.19;;;21.57
66170;BMP280;52971;44.024;20.456;2022-07-01T03:29:31;97885.19;;;21.61
66170;BMP280;52971;44.024;20.456;2022-07-01T03:31:56;97884.06;;;21.65
66170;BMP280;52971;44.024;20.456;2022-07-01T03:34:24;97887.88;;;21.54
66170;BMP280;52971;44.024;20.456;2022-07-01T03:36:49;97886.75;;;21.55
66170;BMP280;52971;44.024;20.456;2022-07-01T03:39:15;97878.66;;;21.65
66170;BMP280;52971;44.024;20.456;2022-07-01T03:41:40;97877.03;;;21.47
66170;BMP280;52971;44.024;20.456;2022-07-01T03:44:06;97886.28;;;21.49
66170;BMP280;52971;44.024;20.456;2022-07-01T03:46:32;97882.91;;;21.63
66170;BMP280;52971;44.024;20.456;2022-07-01T03:48:58;97885.25;;;21.68
66170;BMP280;52971;44.024;20.456;2022-07-01T03:51:24;97890.22;;;21.62
66170;BMP280;52971;44.024;20.456;2022-07-01T03:53:49;97886.78;;;21.69
66170;BMP280;52971;44.024;20.456;2022-07-01T03:56:34;97892.91;;;21.55
66170;BMP280;52971;44.024;20.456;2022-07-01T03:58:59;97901.72;;;21.45
66170;BMP280;52971;44.024;20.456;2022-07-01T04:01:25;97898.31;;;21.59
66170;BMP280;52971;44.024;20.456;2022-07-01T04:03:50;97904.09;;;21.57
66170;BMP280;52971;44.024;20.456;2022-07-01T04:06:16;97895.94;;;21.43
66170;BMP280;52971;44.024;20.456;2022-07-01T04:08:42;97914.06;;;21.50
66170;BMP280;52971;44.024;20.456;2022-07-01T04:11:08;97912.53;;;21.52
66170;BMP280;52971;44.024;20.456;2022-07-01T04:13:35;97910.69;;;21.63
66170;BMP280;52971;44.024;20.456;2022-07-01T04:16:02;97911.44;;;21.64
66170;BMP280;52971;44.024;20.456;2022-07-01T04:18:28;97905.31;;;21.67
66170;BMP280;52971;44.024;20.456;2022-07-01T04:20:56;97912.19;;;21.64
66170;BMP280;52971;44.024;20.456;2022-07-01T04:23:40;97909.63;;;21.82
66170;BMP280;52971;44.024;20.456;2022-07-01T04:26:06;97915.34;;;21.81
66170;BMP280;52971;44.024;20.456;2022-07-01T04:28:31;97910.31;;;21.75
66170;BMP280;52971;44.024;20.456;2022-07-01T04:30:57;97921.19;;;21.90
66170;BMP280;52971;44.024;20.456;2022-07-01T04:33:23;97921.25;;;22.00
66170;BMP280;52971;44.024;20.456;2022-07-01T04:35:48;97925.53;;;22.12
66170;BMP280;52971;44.024;20.456;2022-07-01T04:38:13;97930.94;;;22.23
66170;BMP280;52971;44.024;20.456;2022-07-01T04:40:39;97934.44;;;22.27
66170;BMP280;52971;44.024;20.456;2022-07-01T04:43:04;97945.63;;;22.25
66170;BMP280;52971;44.024;20.456;2022-07-01T04:45:31;97939.50;;;22.46
66170;BMP280;52971;44.024;20.456;2022-07-01T04:47:56;97939.91;;;22.48
66170;BMP280;52971;44.024;20.456;2022-07-01T04:50:22;97937.19;;;22.66
66170;BMP280;52971;44.024;20.456;2022-07-01T04:52:47;97936.44;;;22.62
66170;BMP280;52971;44.024;20.456;2022-07-01T04:55:13;97937.97;;;22.70
66170;BMP280;52971;44.024;20.456;2022-07-01T04:57:38;97940.28;;;22.82
66170;BMP280;52971;44.024;20.456;2022-07-01T05:00:04;97935.63;;;23.14
66170;BMP280;52971;44.024;20.456;2022-07-01T05:02:29;97936.44;;;23.04
66170;BMP280;52971;44.024;20.456;2022-07-01T05:04:55;97934.50;;;23.08
66170;BMP280;52971;44.024;20.456;2022-07-01T05:07:20;97934.88;;;23.24
66170;BMP280;52971;44.024;20.456;2022-07-01T05:09:55;97934.78;;;23.53
66170;BMP280;52971;44.024;20.456;2022-07-01T05:12:21;97937.47;;;23.56
66170;BMP280;52971;44.024;20.456;2022-07-01T05:14:48;97932.84;;;23.57
66170;BMP280;52971;44.024;20.456;2022-07-01T05:17:13;97936.66;;;23.70
66170;BMP280;52971;44.024;20.456;2022-07-01T05:19:39;97937.00;;;23.82
66170;BMP280;52971;44.024;20.456;2022-07-01T05:22:23;97942.41;;;23.89
66170;BMP280;52971;44.024;20.456;2022-07-01T05:24:48;97938.50;;;23.87
66170;BMP280;52971;44.024;20.456;2022-07-01T05:27:14;97948.91;;;24.06
66170;BMP280;52971;44.024;20.456;2022-07-01T05:29:39;97942.28;;;24.11
66170;BMP280;52971;44.024;20.456;2022-07-01T05:32:05;97938.34;;;24.22
66170;BMP280;52971;44.024;20.456;2022-07-01T05:34:30;97934.81;;;24.29
66170;BMP280;52971;44.024;20.456;2022-07-01T05:36:56;97938.97;;;24.44
66170;BMP280;52971;44.024;20.456;2022-07-01T05:39:22;97942.28;;;24.69
66170;BMP280;52971;44.024;20.456;2022-07-01T05:41:47;97932.81;;;24.88
66170;BMP280;52971;44.024;20.456;2022-07-01T05:44:13;97938.63;;;24.87
66170;BMP280;52971;44.024;20.456;2022-07-01T05:46:39;97935.34;;;25.06
66170;BMP280;52971;44.024;20.456;2022-07-01T05:49:05;97942.16;;;25.24
66170;BMP280;52971;44.024;20.456;2022-07-01T05:51:31;97939.75;;;25.30
66170;BMP280;52971;44.024;20.456;2022-07-01T05:53:57;97936.78;;;25.55
66170;BMP280;52971;44.024;20.456;2022-07-01T05:56:24;97929.13;;;25.77
66170;BMP280;52971;44.024;20.456;2022-07-01T05:58:50;97938.19;;;25.97
66170;BMP280;52971;44.024;20.456;2022-07-01T06:01:16;97928.91;;;25.91
66170;BMP280;52971;44.024;20.456;2022-07-01T06:03:41;97935.19;;;25.88
66170;BMP280;52971;44.024;20.456;2022-07-01T06:06:07;97935.44;;;26.00
66170;BMP280;52971;44.024;20.456;2022-07-01T06:08:33;97936.19;;;26.28
66170;BMP280;52971;44.024;20.456;2022-07-01T06:10:59;97932.47;;;26.41
66170;BMP280;52971;44.024;20.456;2022-07-01T06:13:24;97933.94;;;26.69
66170;BMP280;52971;44.024;20.456;2022-07-01T06:15:50;97945.19;;;26.48
66170;BMP280;52971;44.024;20.456;2022-07-01T06:18:16;97937.22;;;26.60
66170;BMP280;52971;44.024;20.456;2022-07-01T06:20:42;97939.03;;;26.67
66170;BMP280;52971;44.024;20.456;2022-07-01T06:23:07;97950.75;;;26.64
66170;BMP280;52971;44.024;20.456;2022-07-01T06:25:33;97951.59;;;26.61
66170;BMP280;52971;44.024;20.456;2022-07-01T06:27:58;97950.34;;;26.66
66170;BMP280;52971;44.024;20.456;2022-07-01T06:30:24;97952.66;;;26.90
66170;BMP280;52971;44.024;20.456;2022-07-01T06:32:49;97952.16;;;26.95
66170;BMP280;52971;44.024;20.456;2022-07-01T06:35:15;97940.81;;;27.00
66170;BMP280;52971;44.024;20.456;2022-07-01T06:37:40;97943.63;;;26.93
66170;BMP280;52971;44.024;20.456;2022-07-01T06:40:06;97948.13;;;27.03
66170;BMP280;52971;44.024;20.456;2022-07-01T06:42:33;97948.56;;;27.22
66170;BMP280;52971;44.024;20.456;2022-07-01T06:44:58;97956.38;;;27.20
66170;BMP280;52971;44.024;20.456;2022-07-01T06:47:24;97942.91;;;27.32
66170;BMP280;52971;44.024;20.456;2022-07-01T06:49:50;97951.63;;;27.24
66170;BMP280;52971;44.024;20.456;2022-07-01T06:52:15;97952.81;;;27.23
66170;BMP280;52971;44.024;20.456;2022-07-01T06:54:41;97954.56;;;27.33
66170;BMP280;52971;44.024;20.456;2022-07-01T06:57:06;97956.03;;;27.57
66170;BMP280;52971;44.024;20.456;2022-07-01T06:59:32;97954.47;;;27.56
66170;BMP280;52971;44.024;20.456;2022-07-01T07:01:58;97961.84;;;27.59
66170;BMP280;52971;44.024;20.456;2022-07-01T07:04:23;97944.63;;;27.62
66170;BMP280;52971;44.024;20.456;2022-07-01T07:06:48;97953.75;;;27.72
66170;BMP280;52971;44.024;20.456;2022-07-01T07:09:14;97944.69;;;27.78
66170;BMP280;52971;44.024;20.456;2022-07-01T07:11:40;97949.66;;;27.99
66170;BMP280;52971;44.024;20.456;2022-07-01T07:14:05;97947.31;;;28.18
66170;BMP280;52971;44.024;20.456;2022-07-01T07:16:31;97957.19;;;28.28
66170;BMP280;52971;44.024;20.456;2022-07-01T07:18:57;97955.97;;;27.96
66170;BMP280;52971;44.024;20.456;2022-07-01T07:21:23;97951.06;;;28.24
66170;BMP280;52971;44.024;20.456;2022-07-01T07:23:48;97953.25;;;28.29
66170;BMP280;52971;44.024;20.456;2022-07-01T07:26:13;97953.88;;;28.36
66170;BMP280;52971;44.024;20.456;2022-07-01T07:28:39;97949.75;;;28.44
66170;BMP280;52971;44.024;20.456;2022-07-01T07:31:05;97956.88;;;28.71
66170;BMP280;52971;44.024;20.456;2022-07-01T07:33:30;97952.59;;;28.86
66170;BMP280;52971;44.024;20.456;2022-07-01T07:35:56;97951.19;;;28.81
66170;BMP280;52971;44.024;20.456;2022-07-01T07:38:21;97949.44;;;28.87
66170;BMP280;52971;44.024;20.456;2022-07-01T07:40:47;97947.50;;;28.88
66170;BMP280;52971;44.024;20.456;2022-07-01T07:43:12;97946.59;;;29.07
66170;BMP280;52971;44.024;20.456;2022-07-01T07:45:38;97942.94;;;29.26
66170;BMP280;52971;44.024;20.456;2022-07-01T07:48:03;97944.59;;;29.36
66170;BMP280;52971;44.024;20.456;2022-07-01T07:50:31;97945.47;;;29.46
66170;BMP280;52971;44.024;20.456;2022-07-01T07:52:56;97945.16;;;29.44
66170;BMP280;52971;44.024;20.456;2022-07-01T07:55:22;97952.44;;;29.34
66170;BMP280;52971;44.024;20.456;2022-07-01T07:57:47;97947.47;;;29.58
66170;BMP280;52971;44.024;20.456;2022-07-01T08:00:13;97943.06;;;29.35
66170;BMP280;52971;44.024;20.456;2022-07-01T08:02:39;97946.91;;;29.63
66170;BMP280;52971;44.024;20.456;2022-07-01T08:05:06;97947.34;;;29.49
66170;BMP280;52971;44.024;20.456;2022-07-01T08:07:36;97946.47;;;29.77
66170;BMP280;52971;44.024;20.456;2022-07-01T08:10:06;97946.50;;;29.65
66170;BMP280;52971;44.024;20.456;2022-07-01T08:12:32;97943.88;;;29.99
66170;BMP280;52971;44.024;20.456;2022-07-01T08:14:58;97943.13;;;29.98
66170;BMP280;52971;44.024;20.456;2022-07-01T08:17:24;97940.47;;;30.08
66170;BMP280;52971;44.024;20.456;2022-07-01T08:19:50;97942.88;;;30.06
66170;BMP280;52971;44.024;20.456;2022-07-01T08:22:15;97943.28;;;30.17
66170;BMP280;52971;44.024;20.456;2022-07-01T08:24:41;97943.00;;;30.49
66170;BMP280;52971;44.024;20.456;2022-07-01T08:27:06;97943.66;;;30.53
66170;BMP280;52971;44.024;20.456;2022-07-01T08:29:32;97945.28;;;30.63
66170;BMP280;52971;44.024;20.456;2022-07-01T08:31:57;97948.91;;;30.82
66170;BMP280;52971;44.024;20.456;2022-07-01T08:34:23;97946.25;;;30.69
66170;BMP280;52971;44.024;20.456;2022-07-01T08:36:48;97950.25;;;30.77
66170;BMP280;52971;44.024;20.456;2022-07-01T08:39:14;97941.97;;;30.90
66170;BMP280;52971;44.024;20.456;2022-07-01T08:41:42;97939.19;;;31.02
66170;BMP280;52971;44.024;20.456;2022-07-01T08:44:09;97939.59;;;31.53
66170;BMP280;52971;44.024;20.456;2022-07-01T08:46:34;97935.31;;;31.74
66170;BMP280;52971;44.024;20.456;2022-07-01T08:49:00;97935.50;;;31.89
66170;BMP280;52971;44.024;20.456;2022-07-01T08:51:26;97940.53;;;31.99
66170;BMP280;52971;44.024;20.456;2022-07-01T08:53:52;97923.94;;;32.03
66170;BMP280;52971;44.024;20.456;2022-07-01T08:56:17;97926.28;;;32.41
66170;BMP280;52971;44.024;20.456;2022-07-01T08:59:01;97922.28;;;32.24
66170;BMP280;52971;44.024;20.456;2022-07-01T09:01:26;97930.06;;;32.52
66170;BMP280;52971;44.024;20.456;2022-07-01T09:03:54;97929.94;;;32.65
66170;BMP280;52971;44.024;20.456;2022-07-01T09:06:21;97932.66;;;32.74
66170;BMP280;52971;44.024;20.456;2022-07-01T09:08:48;97932.53;;;32.78
66170;BMP280;52971;44.024;20.456;2022-07-01T09:13:42;97930.50;;;32.87
66170;BMP280;52971;44.024;20.456;2022-07-01T09:16:15;97932.91;;;33.12
66170;BMP280;52971;44.024;20.456;2022-07-01T09:18:59;97926.19;;;33.13
66170;BMP280;52971;44.024;20.456;2022-07-01T09:21:28;97926.13;;;33.32
66170;BMP280;52971;44.024;20.456;2022-07-01T09:23:55;97924.72;;;33.69
66170;BMP280;52971;44.024;20.456;2022-07-01T09:26:21;97920.75;;;33.70
66170;BMP280;52971;44.024;20.456;2022-07-01T09:28:57;97917.56;;;33.95
66170;BMP280;52971;44.024;20.456;2022-07-01T09:31:33;97916.47;;;33.93
66170;BMP280;52971;44.024;20.456;2022-07-01T09:34:05;97918.38;;;34.10
66170;BMP280;52971;44.024;20.456;2022-07-01T09:36:32;97920.31;;;33.95
66170;BMP280;52971;44.024;20.456;2022-07-01T09:39:03;97919.31;;;34.46
66170;BMP280;52971;44.024;20.456;2022-07-01T09:41:35;97919.75;;;34.44
66170;BMP280;52971;44.024;20.456;2022-07-01T09:44:09;97930.03;;;34.44
66170;BMP280;52971;44.024;20.456;2022-07-01T09:46:35;97935.56;;;34.58
66170;BMP280;52971;44.024;20.456;2022-07-01T09:49:02;97929.53;;;34.98
66170;BMP280;52971;44.024;20.456;2022-07-01T09:51:28;97925.63;;;35.74
66170;BMP280;52971;44.024;20.456;2022-07-01T09:53:55;97923.59;;;36.35
66170;BMP280;52971;44.024;20.456;2022-07-01T09:56:23;97920.03;;;37.23
66170;BMP280;52971;44.024;20.456;2022-07-01T09:58:49;97921.59;;;37.89
66170;BMP280;52971;44.024;20.456;2022-07-01T10:01:14;97921.91;;;37.43
66170;BMP280;52971;44.024;20.456;2022-07-01T10:03:41;97920.16;;;37.99
66170;BMP280;52971;44.024;20.456;2022-07-01T10:08:36;97922.72;;;38.08
66170;BMP280;52971;44.024;20.456;2022-07-01T10:14:07;97917.72;;;36.79
66170;BMP280;52971;44.024;20.456;2022-07-01T10:16:34;97913.09;;;37.02
66170;BMP280;52971;44.024;20.456;2022-07-01T10:19:36;97918.34;;;37.85
66170;BMP280;52971;44.024;20.456;2022-07-01T10:22:25;97915.84;;;37.98
66170;BMP280;52971;44.024;20.456;2022-07-01T10:24:51;97916.94;;;38.28
66170;BMP280;52971;44.024;20.456;2022-07-01T10:27:21;97913.47;;;37.68
66170;BMP280;52971;44.024;20.456;2022-07-01T10:29:47;97912.31;;;37.92
66170;BMP280;52971;44.024;20.456;2022-07-01T10:34:48;97919.50;;;38.59
66170;BMP280;52971;44.024;20.456;2022-07-01T10:37:16;97917.47;;;38.54
66170;BMP280;52971;44.024;20.456;2022-07-01T10:40:01;97907.59;;;38.31
66170;BMP280;52971;44.024;20.456;2022-07-01T10:45:17;97905.63;;;38.43
66170;BMP280;52971;44.024;20.456;2022-07-01T10:47:42;97902.31;;;38.33
66170;BMP280;52971;44.024;20.456;2022-07-01T10:50:13;97900.59;;;38.85
66170;BMP280;52971;44.024;20.456;2022-07-01T10:52:58;97899.22;;;39.20
66170;BMP280;52971;44.024;20.456;2022-07-01T10:55:36;97889.63;;;39.32
66170;BMP280;52971;44.024;20.456;2022-07-01T10:58:01;97882.75;;;39.44
66170;BMP280;52971;44.024;20.456;2022-07-01T11:00:28;97884.22;;;40.02
66170;BMP280;52971;44.024;20.456;2022-07-01T11:03:05;97880.28;;;40.52
66170;BMP280;52971;44.024;20.456;2022-07-01T11:05:31;97873.97;;;40.21
66170;BMP280;52971;44.024;20.456;2022-07-01T11:07:56;97872.56;;;40.39
66170;BMP280;52971;44.024;20.456;2022-07-01T11:10:22;97873.53;;;39.71
66170;BMP280;52971;44.024;20.456;2022-07-01T11:12:47;97879.53;;;39.29
66170;BMP280;52971;44.024;20.456;2022-07-01T11:15:15;97874.31;;;38.92
66170;BMP280;52971;44.024;20.456;2022-07-01T11:17:46;97860.75;;;38.61
66170;BMP280;52971;44.024;20.456;2022-07-01T11:20:11;97869.44;;;37.70
66170;BMP280;52971;44.024;20.456;2022-07-01T11:22:37;97865.47;;;37.29
66170;BMP280;52971;44.024;20.456;2022-07-01T11:25:07;97859.56;;;37.05
66170;BMP280;52971;44.024;20.456;2022-07-01T11:27:34;97862.28;;;36.63
66170;BMP280;52971;44.024;20.456;2022-07-01T11:30:03;97865.94;;;36.85
66170;BMP280;52971;44.024;20.456;2022-07-01T11:32:32;97857.38;;;36.46
66170;BMP280;52971;44.024;20.456;2022-07-01T11:34:58;97853.06;;;36.45
66170;BMP280;52971;44.024;20.456;2022-07-01T11:37:29;97848.31;;;36.46
66170;BMP280;52971;44.024;20.456;2022-07-01T11:40:15;97841.97;;;36.71
66170;BMP280;52971;44.024;20.456;2022-07-01T11:42:43;97844.75;;;36.14
66170;BMP280;52971;44.024;20.456;2022-07-01T11:45:09;97841.88;;;36.03
66170;BMP280;52971;44.024;20.456;2022-07-01T11:47:46;97841.19;;;35.48
66170;BMP280;52971;44.024;20.456;2022-07-01T11:50:12;97834.84;;;35.82
66170;BMP280;52971;44.024;20.456;2022-07-01T11:52:41;97830.22;;;36.19
66170;BMP280;52971;44.024;20.456;2022-07-01T11:55:06;97818.69;;;36.46
66170;BMP280;52971;44.024;20.456;2022-07-01T11:57:32;97823.38;;;36.72
66170;BMP280;52971;44.024;20.456;2022-07-01T12:00:10;97833.44;;;36.43
66170;BMP280;52971;44.024;20.456;2022-07-01T12:02:38;97824.97;;;36.53
66170;BMP280;52971;44.024;20.456;2022-07-01T12:05:05;97830.75;;;36.86
66170;BMP280;52971;44.024;20.456;2022-07-01T12:07:30;97830.81;;;36.91
66170;BMP280;52971;44.024;20.456;2022-07-01T12:09:57;97819.81;;;36.66
66170;BMP280;52971;44.024;20.456;2022-07-01T12:12:23;97817.91;;;36.77
66170;BMP280;52971;44.024;20.456;2022-07-01T12:14:55;97826.81;;;36.98
66170;BMP280;52971;44.024;20.456;2022-07-01T12:17:21;97815.66;;;36.81
66170;BMP280;52971;44.024;20.456;2022-07-01T12:19:48;97821.50;;;36.58
66170;BMP280;52971;44.024;20.456;2022-07-01T12:22:17;97821.75;;;36.54
66170;BMP280;52971;44.024;20.456;2022-07-01T12:24:45;97825.59;;;36.36
66170;BMP280;52971;44.024;20.456;2022-07-01T12:27:10;97824.88;;;36.73
66170;BMP280;52971;44.024;20.456;2022-07-01T12:32:15;97813.00;;;37.03
66170;BMP280;52971;44.024;20.456;2022-07-01T12:37:17;97810.09;;;36.76
66170;BMP280;52971;44.024;20.456;2022-07-01T12:39:56;97801.13;;;36.92
66170;BMP280;52971;44.024;20.456;2022-07-01T12:42:36;97805.69;;;36.95
66170;BMP280;52971;44.024;20.456;2022-07-01T12:45:10;97793.78;;;37.31
66170;BMP280;52971;44.024;20.456;2022-07-01T12:47:42;97790.78;;;37.40
66170;BMP280;52971;44.024;20.456;2022-07-01T12:53:06;97797.69;;;37.67
66170;BMP280;52971;44.024;20.456;2022-07-01T12:55:40;97788.13;;;37.68
66170;BMP280;52971;44.024;20.456;2022-07-01T12:58:07;97788.41;;;37.81
66170;BMP280;52971;44.024;20.456;2022-07-01T13:00:34;97784.41;;;37.99
66170;BMP280;52971;44.024;20.456;2022-07-01T13:03:01;97785.09;;;37.66
66170;BMP280;52971;44.024;20.456;2022-07-01T13:05:29;97782.09;;;37.75
66170;BMP280;52971;44.024;20.456;2022-07-01T13:07:55;97781.31;;;37.63
66170;BMP280;52971;44.024;20.456;2022-07-01T13:10:21;97781.88;;;38.12
66170;BMP280;52971;44.024;20.456;2022-07-01T13:12:47;97782.34;;;37.72
66170;BMP280;52971;44.024;20.456;2022-07-01T13:15:14;97783.88;;;37.84
66170;BMP280;52971;44.024;20.456;2022-07-01T13:17:40;97781.34;;;37.80
66170;BMP280;52971;44.024;20.456;2022-07-01T13:20:06;97781.28;;;37.52
66170;BMP280;52971;44.024;20.456;2022-07-01T13:22:33;97776.31;;;37.90
66170;BMP280;52971;44.024;20.456;2022-07-01T13:24:59;97774.06;;;37.99
66170;BMP280;52971;44.024;20.456;2022-07-01T13:27:24;97777.78;;;37.57
66170;BMP280;52971;44.024;20.456;2022-07-01T13:29:51;97775.81;;;37.86
66170;BMP280;52971;44.024;20.456;2022-07-01T13:32:17;97767.47;;;37.75
66170;BMP280;52971;44.024;20.456;2022-07-01T13:34:42;97766.50;;;37.78
66170;BMP280;52971;44.024;20.456;2022-07-01T13:37:08;97762.47;;;38.17
66170;BMP280;52971;44.024;20.456;2022-07-01T13:39:33;97762.22;;;38.15
66170;BMP280;52971;44.024;20.456;2022-07-01T13:41:59;97764.75;;;37.97
66170;BMP280;52971;44.024;20.456;2022-07-01T13:44:24;97768.53;;;37.83
66170;BMP280;52971;44.024;20.456;2022-07-01T13:46:50;97762.16;;;37.54
66170;BMP280;52971;44.024;20.456;2022-07-01T13:49:15;97757.03;;;37.25
66170;BMP280;52971;44.024;20.456;2022-07-01T13:51:41;97765.66;;;37.49
66170;BMP280;52971;44.024;20.456;2022-07-01T13:54:07;97756.31;;;37.36
66170;BMP280;52971;44.024;20.456;2022-07-01T13:56:33;97757.94;;;37.64
66170;BMP280;52971;44.024;20.456;2022-07-01T13:58:58;97753.63;;;37.75
66170;BMP280;52971;44.024;20.456;2022-07-01T14:01:24;97754.88;;;37.68
66170;BMP280;52971;44.024;20.456;2022-07-01T14:03:51;97749.34;;;37.68
66170;BMP280;52971;44.024;20.456;2022-07-01T14:06:17;97745.03;;;37.61
66170;BMP280;52971;44.024;20.456;2022-07-01T14:08:43;97746.34;;;37.88
66170;BMP280;52971;44.024;20.456;2022-07-01T14:11:09;97750.41;;;37.98
66170;BMP280;52971;44.024;20.456;2022-07-01T14:13:35;97738.50;;;37.53
66170;BMP280;52971;44.024;20.456;2022-07-01T14:16:01;97736.28;;;37.74
66170;BMP280;52971;44.024;20.456;2022-07-01T14:18:27;97737.00;;;37.52
66170;BMP280;52971;44.024;20.456;2022-07-01T14:20:53;97732.44;;;37.49